sensor_id;sensor_type;location;lat;lon;timestamp;P1;durP1;ratioP1;P2;durP2;ratioP2
40611;SDS011;26317;44.894;20.286;2023-04-28T00:01:45;21.25;;;14.68;;
40611;SDS011;26317;44.894;20.286;2023-04-28T00:04:22;29.05;;;16.40;;
40611;SDS011;26317;44.894;20.286;2023-04-28T00:06:58;20.55;;;16.13;;
40611;SDS011;26317;44.894;20.286;2023-04-28T00:09:30;26.67;;;16.23;;
40611;SDS011;26317;44.894;20.286;2023-04-28T00:12:06;29.30;;;17.20;;
40611;SDS011;26317;44.894;20.286;2023-04-28T00:14:42;27.00;;;17.10;;
40611;SDS011;26317;44.894;20.286;2023-04-28T00:17:18;24.90;;;16.67;;
40611;SDS011;26317;44.894;20.286;2023-04-28T00:19:55;23.30;;;17.35;;
40611;SDS011;26317;44.894;20.286;2023-04-28T00:22:30;21.67;;;17.02;;
40611;SDS011;26317;44.894;20.286;2023-04-28T00:25:10;23.75;;;17.63;;
40611;SDS011;26317;44.894;20.286;2023-04-28T00:27:45;30.63;;;18.25;;
40611;SDS011;26317;44.894;20.286;2023-04-28T00:30:20;27.10;;;16.08;;
40611;SDS011;26317;44.894;20.286;2023-04-28T00:33:04;25.65;;;18.98;;
40611;SDS011;26317;44.894;20.286;2023-04-28T00:35:47;25.10;;;16.92;;
40611;SDS011;26317;44.894;20.286;2023-04-28T00:38:25;25.27;;;17.38;;
40611;SDS011;26317;44.894;20.286;2023-04-28T00:41:00;25.58;;;19.02;;
40611;SDS011;26317;44.894;20.286;2023-04-28T00:43:44;28.73;;;17.85;;
40611;SDS011;26317;44.894;20.286;2023-04-28T00:46:26;26.02;;;17.20;;
40611;SDS011;26317;44.894;20.286;2023-04-28T00:49:09;24.15;;;18.58;;
40611;SDS011;26317;44.894;20.286;2023-04-28T00:51:49;23.65;;;17.83;;
40611;SDS011;26317;44.894;20.286;2023-04-28T00:54:26;27.33;;;16.98;;
40611;SDS011;26317;44.894;20.286;2023-04-28T00:57:06;22.40;;;15.35;;
40611;SDS011;26317;44.894;20.286;2023-04-28T00:59:43;18.85;;;15.23;;
40611;SDS011;26317;44.894;20.286;2023-04-28T01:02:42;23.88;;;16.08;;
40611;SDS011;26317;44.894;20.286;2023-04-28T01:05:24;25.52;;;17.00;;
40611;SDS011;26317;44.894;20.286;2023-04-28T01:08:03;25.10;;;16.23;;
40611;SDS011;26317;44.894;20.286;2023-04-28T01:10:48;23.48;;;14.90;;
40611;SDS011;26317;44.894;20.286;2023-04-28T01:13:47;27.17;;;15.77;;
40611;SDS011;26317;44.894;20.286;2023-04-28T01:16:29;28.83;;;15.07;;
40611;SDS011;26317;44.894;20.286;2023-04-28T01:19:03;25.55;;;15.15;;
40611;SDS011;26317;44.894;20.286;2023-04-28T01:21:55;21.25;;;14.10;;
40611;SDS011;26317;44.894;20.286;2023-04-28T01:24:28;18.23;;;14.73;;
40611;SDS011;26317;44.894;20.286;2023-04-28T01:27:07;22.63;;;14.05;;
40611;SDS011;26317;44.894;20.286;2023-04-28T01:29:41;20.05;;;14.25;;
40611;SDS011;26317;44.894;20.286;2023-04-28T01:32:24;18.65;;;12.52;;
40611;SDS011;26317;44.894;20.286;2023-04-28T01:34:58;24.17;;;13.85;;
40611;SDS011;26317;44.894;20.286;2023-04-28T01:37:35;20.92;;;13.52;;
40611;SDS011;26317;44.894;20.286;2023-04-28T01:40:11;21.40;;;13.52;;
40611;SDS011;26317;44.894;20.286;2023-04-28T01:45:29;22.55;;;13.68;;
40611;SDS011;26317;44.894;20.286;2023-04-28T01:48:13;21.23;;;14.23;;
40611;SDS011;26317;44.894;20.286;2023-04-28T01:50:48;26.08;;;13.65;;
40611;SDS011;26317;44.894;20.286;2023-04-28T01:53:22;17.88;;;14.02;;
40611;SDS011;26317;44.894;20.286;2023-04-28T01:56:07;17.73;;;13.70;;
40611;SDS011;26317;44.894;20.286;2023-04-28T01:58:42;20.40;;;12.77;;
40611;SDS011;26317;44.894;20.286;2023-04-28T02:01:28;19.25;;;13.18;;
40611;SDS011;26317;44.894;20.286;2023-04-28T02:04:06;27.33;;;13.43;;
40611;SDS011;26317;44.894;20.286;2023-04-28T02:06:50;15.40;;;12.82;;
40611;SDS011;26317;44.894;20.286;2023-04-28T02:09:28;19.25;;;13.20;;
40611;SDS011;26317;44.894;20.286;2023-04-28T02:12:16;15.25;;;12.38;;
40611;SDS011;26317;44.894;20.286;2023-04-28T02:14:52;16.83;;;12.50;;
40611;SDS011;26317;44.894;20.286;2023-04-28T02:17:28;18.25;;;13.20;;
40611;SDS011;26317;44.894;20.286;2023-04-28T02:19:59;16.75;;;12.60;;
40611;SDS011;26317;44.894;20.286;2023-04-28T02:22:39;16.40;;;12.35;;
40611;SDS011;26317;44.894;20.286;2023-04-28T02:25:18;21.83;;;14.02;;
40611;SDS011;26317;44.894;20.286;2023-04-28T02:27:54;18.17;;;13.18;;
40611;SDS011;26317;44.894;20.286;2023-04-28T02:30:35;17.48;;;11.75;;
40611;SDS011;26317;44.894;20.286;2023-04-28T02:33:24;13.63;;;11.38;;
40611;SDS011;26317;44.894;20.286;2023-04-28T02:36:00;20.20;;;12.25;;
40611;SDS011;26317;44.894;20.286;2023-04-28T02:38:53;16.70;;;11.40;;
40611;SDS011;26317;44.894;20.286;2023-04-28T02:41:27;16.33;;;12.85;;
40611;SDS011;26317;44.894;20.286;2023-04-28T02:44:16;20.17;;;12.10;;
40611;SDS011;26317;44.894;20.286;2023-04-28T02:46:54;18.08;;;12.75;;
40611;SDS011;26317;44.894;20.286;2023-04-28T02:49:42;20.83;;;13.38;;
40611;SDS011;26317;44.894;20.286;2023-04-28T02:52:26;20.55;;;13.95;;
40611;SDS011;26317;44.894;20.286;2023-04-28T02:55:06;25.52;;;14.13;;
40611;SDS011;26317;44.894;20.286;2023-04-28T02:57:52;21.55;;;14.48;;
40611;SDS011;26317;44.894;20.286;2023-04-28T03:00:31;22.30;;;14.70;;
40611;SDS011;26317;44.894;20.286;2023-04-28T03:03:08;19.58;;;14.02;;
40611;SDS011;26317;44.894;20.286;2023-04-28T03:05:49;19.67;;;13.75;;
40611;SDS011;26317;44.894;20.286;2023-04-28T03:08:26;21.00;;;15.23;;
40611;SDS011;26317;44.894;20.286;2023-04-28T03:11:04;17.83;;;13.82;;
40611;SDS011;26317;44.894;20.286;2023-04-28T03:13:39;20.38;;;15.10;;
40611;SDS011;26317;44.894;20.286;2023-04-28T03:16:23;19.08;;;14.60;;
40611;SDS011;26317;44.894;20.286;2023-04-28T03:19:05;21.50;;;15.65;;
40611;SDS011;26317;44.894;20.286;2023-04-28T03:21:41;23.75;;;16.25;;
40611;SDS011;26317;44.894;20.286;2023-04-28T03:24:22;27.75;;;16.73;;
40611;SDS011;26317;44.894;20.286;2023-04-28T03:27:13;20.52;;;15.27;;
40611;SDS011;26317;44.894;20.286;2023-04-28T03:29:56;21.50;;;16.58;;
40611;SDS011;26317;44.894;20.286;2023-04-28T03:32:31;25.05;;;16.45;;
40611;SDS011;26317;44.894;20.286;2023-04-28T03:35:15;23.30;;;17.65;;
40611;SDS011;26317;44.894;20.286;2023-04-28T03:37:59;23.00;;;16.60;;
40611;SDS011;26317;44.894;20.286;2023-04-28T03:40:38;22.17;;;16.27;;
40611;SDS011;26317;44.894;20.286;2023-04-28T03:43:35;29.38;;;18.88;;
40611;SDS011;26317;44.894;20.286;2023-04-28T03:46:13;24.95;;;16.95;;
40611;SDS011;26317;44.894;20.286;2023-04-28T03:48:50;23.90;;;17.15;;
40611;SDS011;26317;44.894;20.286;2023-04-28T03:51:25;27.35;;;19.05;;
40611;SDS011;26317;44.894;20.286;2023-04-28T03:54:02;26.80;;;19.60;;
40611;SDS011;26317;44.894;20.286;2023-04-28T03:59:16;25.75;;;18.90;;
40611;SDS011;26317;44.894;20.286;2023-04-28T04:01:49;24.67;;;18.92;;
40611;SDS011;26317;44.894;20.286;2023-04-28T04:04:32;30.77;;;20.20;;
40611;SDS011;26317;44.894;20.286;2023-04-28T04:07:11;30.88;;;20.35;;
40611;SDS011;26317;44.894;20.286;2023-04-28T04:09:48;28.15;;;19.52;;
40611;SDS011;26317;44.894;20.286;2023-04-28T04:12:34;26.33;;;20.15;;
40611;SDS011;26317;44.894;20.286;2023-04-28T04:15:14;29.85;;;20.85;;
40611;SDS011;26317;44.894;20.286;2023-04-28T04:17:51;34.88;;;21.25;;
40611;SDS011;26317;44.894;20.286;2023-04-28T04:20:47;28.67;;;19.05;;
40611;SDS011;26317;44.894;20.286;2023-04-28T04:23:25;31.55;;;21.00;;
40611;SDS011;26317;44.894;20.286;2023-04-28T04:26:10;31.58;;;20.23;;
40611;SDS011;26317;44.894;20.286;2023-04-28T04:28:45;33.15;;;21.58;;
40611;SDS011;26317;44.894;20.286;2023-04-28T04:31:25;28.10;;;20.08;;
40611;SDS011;26317;44.894;20.286;2023-04-28T04:34:14;29.98;;;21.30;;
40611;SDS011;26317;44.894;20.286;2023-04-28T04:36:54;23.30;;;20.58;;
40611;SDS011;26317;44.894;20.286;2023-04-28T04:39:26;30.70;;;21.30;;
40611;SDS011;26317;44.894;20.286;2023-04-28T04:42:02;29.02;;;20.90;;
40611;SDS011;26317;44.894;20.286;2023-04-28T04:45:11;31.00;;;22.20;;
40611;SDS011;26317;44.894;20.286;2023-04-28T04:47:47;39.22;;;22.50;;
40611;SDS011;26317;44.894;20.286;2023-04-28T04:50:23;32.80;;;22.33;;
40611;SDS011;26317;44.894;20.286;2023-04-28T04:52:57;32.33;;;23.13;;
40611;SDS011;26317;44.894;20.286;2023-04-28T04:55:44;36.95;;;24.75;;
40611;SDS011;26317;44.894;20.286;2023-04-28T04:58:22;34.08;;;23.17;;
40611;SDS011;26317;44.894;20.286;2023-04-28T05:01:03;37.85;;;25.55;;
40611;SDS011;26317;44.894;20.286;2023-04-28T05:03:41;35.05;;;25.23;;
40611;SDS011;26317;44.894;20.286;2023-04-28T05:06:16;39.72;;;29.17;;
40611;SDS011;26317;44.894;20.286;2023-04-28T05:08:54;41.90;;;30.70;;
40611;SDS011;26317;44.894;20.286;2023-04-28T05:11:33;41.90;;;30.73;;
40611;SDS011;26317;44.894;20.286;2023-04-28T05:14:11;42.45;;;30.90;;
40611;SDS011;26317;44.894;20.286;2023-04-28T05:16:50;39.83;;;29.52;;
40611;SDS011;26317;44.894;20.286;2023-04-28T05:19:36;34.25;;;25.20;;
40611;SDS011;26317;44.894;20.286;2023-04-28T05:22:15;36.15;;;25.73;;
40611;SDS011;26317;44.894;20.286;2023-04-28T05:24:55;34.05;;;24.23;;
40611;SDS011;26317;44.894;20.286;2023-04-28T05:27:29;32.35;;;22.45;;
40611;SDS011;26317;44.894;20.286;2023-04-28T05:30:05;26.23;;;20.85;;
40611;SDS011;26317;44.894;20.286;2023-04-28T05:32:49;25.85;;;19.38;;
40611;SDS011;26317;44.894;20.286;2023-04-28T05:35:27;29.25;;;18.85;;
40611;SDS011;26317;44.894;20.286;2023-04-28T05:38:09;25.50;;;18.50;;
40611;SDS011;26317;44.894;20.286;2023-04-28T05:40:53;26.60;;;18.38;;
40611;SDS011;26317;44.894;20.286;2023-04-28T05:43:30;27.55;;;18.45;;
40611;SDS011;26317;44.894;20.286;2023-04-28T05:46:08;27.30;;;18.95;;
40611;SDS011;26317;44.894;20.286;2023-04-28T05:48:59;26.88;;;17.83;;
40611;SDS011;26317;44.894;20.286;2023-04-28T05:51:49;33.75;;;19.52;;
40611;SDS011;26317;44.894;20.286;2023-04-28T05:54:30;25.92;;;18.45;;
40611;SDS011;26317;44.894;20.286;2023-04-28T05:57:14;30.13;;;18.63;;
40611;SDS011;26317;44.894;20.286;2023-04-28T05:59:47;27.85;;;18.30;;
40611;SDS011;26317;44.894;20.286;2023-04-28T06:02:20;27.90;;;18.23;;
40611;SDS011;26317;44.894;20.286;2023-04-28T06:05:00;25.38;;;17.98;;
40611;SDS011;26317;44.894;20.286;2023-04-28T06:07:40;24.10;;;18.00;;
40611;SDS011;26317;44.894;20.286;2023-04-28T06:10:17;22.23;;;17.90;;
40611;SDS011;26317;44.894;20.286;2023-04-28T06:12:53;25.40;;;17.75;;
40611;SDS011;26317;44.894;20.286;2023-04-28T06:15:31;26.75;;;17.45;;
40611;SDS011;26317;44.894;20.286;2023-04-28T06:18:09;21.70;;;15.18;;
40611;SDS011;26317;44.894;20.286;2023-04-28T06:20:50;25.98;;;14.57;;
40611;SDS011;26317;44.894;20.286;2023-04-28T06:23:37;21.88;;;14.32;;
40611;SDS011;26317;44.894;20.286;2023-04-28T06:26:13;24.20;;;14.25;;
40611;SDS011;26317;44.894;20.286;2023-04-28T06:28:56;22.70;;;12.25;;
40611;SDS011;26317;44.894;20.286;2023-04-28T06:31:41;22.83;;;13.60;;
40611;SDS011;26317;44.894;20.286;2023-04-28T06:34:23;24.92;;;14.60;;
40611;SDS011;26317;44.894;20.286;2023-04-28T06:36:59;21.00;;;13.90;;
40611;SDS011;26317;44.894;20.286;2023-04-28T06:39:38;24.15;;;12.77;;
40611;SDS011;26317;44.894;20.286;2023-04-28T06:42:15;23.92;;;14.48;;
40611;SDS011;26317;44.894;20.286;2023-04-28T06:45:01;17.25;;;11.38;;
40611;SDS011;26317;44.894;20.286;2023-04-28T06:47:36;23.45;;;10.10;;
40611;SDS011;26317;44.894;20.286;2023-04-28T06:50:11;21.65;;;9.88;;
40611;SDS011;26317;44.894;20.286;2023-04-28T06:52:45;12.52;;;8.75;;
40611;SDS011;26317;44.894;20.286;2023-04-28T06:55:25;14.50;;;7.15;;
40611;SDS011;26317;44.894;20.286;2023-04-28T06:58:00;12.90;;;7.80;;
40611;SDS011;26317;44.894;20.286;2023-04-28T07:00:36;11.43;;;6.55;;
40611;SDS011;26317;44.894;20.286;2023-04-28T07:03:15;13.82;;;7.47;;
40611;SDS011;26317;44.894;20.286;2023-04-28T07:05:54;10.50;;;6.47;;
40611;SDS011;26317;44.894;20.286;2023-04-28T07:08:32;14.57;;;6.25;;
40611;SDS011;26317;44.894;20.286;2023-04-28T07:11:09;13.13;;;6.60;;
40611;SDS011;26317;44.894;20.286;2023-04-28T07:13:45;8.88;;;5.82;;
40611;SDS011;26317;44.894;20.286;2023-04-28T07:16:25;10.52;;;5.47;;
40611;SDS011;26317;44.894;20.286;2023-04-28T07:19:01;10.00;;;5.38;;
40611;SDS011;26317;44.894;20.286;2023-04-28T07:21:38;10.23;;;5.90;;
40611;SDS011;26317;44.894;20.286;2023-04-28T07:24:15;17.10;;;7.03;;
40611;SDS011;26317;44.894;20.286;2023-04-28T07:26:56;12.02;;;4.88;;
40611;SDS011;26317;44.894;20.286;2023-04-28T07:29:39;7.80;;;5.00;;
40611;SDS011;26317;44.894;20.286;2023-04-28T07:32:14;11.70;;;5.43;;
40611;SDS011;26317;44.894;20.286;2023-04-28T07:34:49;12.32;;;5.55;;
40611;SDS011;26317;44.894;20.286;2023-04-28T07:37:27;10.15;;;5.80;;
40611;SDS011;26317;44.894;20.286;2023-04-28T07:40:07;11.63;;;5.60;;
40611;SDS011;26317;44.894;20.286;2023-04-28T07:42:43;17.20;;;5.90;;
40611;SDS011;26317;44.894;20.286;2023-04-28T07:45:20;11.18;;;5.72;;
40611;SDS011;26317;44.894;20.286;2023-04-28T07:48:12;11.75;;;5.85;;
40611;SDS011;26317;44.894;20.286;2023-04-28T07:50:50;8.70;;;5.10;;
40611;SDS011;26317;44.894;20.286;2023-04-28T07:56:03;14.65;;;6.18;;
40611;SDS011;26317;44.894;20.286;2023-04-28T07:58:53;9.70;;;6.22;;
40611;SDS011;26317;44.894;20.286;2023-04-28T08:01:29;10.80;;;5.70;;
40611;SDS011;26317;44.894;20.286;2023-04-28T08:04:12;10.32;;;5.50;;
40611;SDS011;26317;44.894;20.286;2023-04-28T08:06:53;7.80;;;5.30;;
40611;SDS011;26317;44.894;20.286;2023-04-28T08:09:30;12.45;;;5.82;;
40611;SDS011;26317;44.894;20.286;2023-04-28T08:12:11;10.10;;;5.50;;
40611;SDS011;26317;44.894;20.286;2023-04-28T08:14:48;12.23;;;6.57;;
40611;SDS011;26317;44.894;20.286;2023-04-28T08:17:24;13.45;;;5.57;;
40611;SDS011;26317;44.894;20.286;2023-04-28T08:20:08;7.30;;;4.90;;
40611;SDS011;26317;44.894;20.286;2023-04-28T08:22:55;11.82;;;5.38;;
40611;SDS011;26317;44.894;20.286;2023-04-28T08:25:39;8.23;;;5.28;;
40611;SDS011;26317;44.894;20.286;2023-04-28T08:28:26;7.75;;;3.70;;
40611;SDS011;26317;44.894;20.286;2023-04-28T08:31:16;8.18;;;4.25;;
40611;SDS011;26317;44.894;20.286;2023-04-28T08:33:52;6.32;;;3.33;;
40611;SDS011;26317;44.894;20.286;2023-04-28T08:36:31;8.40;;;4.00;;
40611;SDS011;26317;44.894;20.286;2023-04-28T08:39:14;5.78;;;3.60;;
40611;SDS011;26317;44.894;20.286;2023-04-28T08:41:47;10.43;;;3.85;;
40611;SDS011;26317;44.894;20.286;2023-04-28T08:44:25;5.90;;;3.30;;
40611;SDS011;26317;44.894;20.286;2023-04-28T08:47:02;13.60;;;2.88;;
40611;SDS011;26317;44.894;20.286;2023-04-28T08:49:42;6.40;;;3.65;;
40611;SDS011;26317;44.894;20.286;2023-04-28T08:52:20;6.78;;;3.45;;
40611;SDS011;26317;44.894;20.286;2023-04-28T08:54:59;9.68;;;3.80;;
40611;SDS011;26317;44.894;20.286;2023-04-28T08:57:38;6.53;;;3.53;;
40611;SDS011;26317;44.894;20.286;2023-04-28T09:00:19;7.38;;;3.20;;
40611;SDS011;26317;44.894;20.286;2023-04-28T09:02:57;6.03;;;3.58;;
40611;SDS011;26317;44.894;20.286;2023-04-28T09:05:45;7.43;;;2.88;;
40611;SDS011;26317;44.894;20.286;2023-04-28T09:08:21;4.60;;;2.97;;
40611;SDS011;26317;44.894;20.286;2023-04-28T09:11:05;6.28;;;2.90;;
40611;SDS011;26317;44.894;20.286;2023-04-28T09:16:17;3.72;;;2.85;;
40611;SDS011;26317;44.894;20.286;2023-04-28T09:18:56;6.70;;;2.55;;
40611;SDS011;26317;44.894;20.286;2023-04-28T09:21:44;5.60;;;2.70;;
40611;SDS011;26317;44.894;20.286;2023-04-28T09:24:28;5.78;;;2.33;;
40611;SDS011;26317;44.894;20.286;2023-04-28T09:27:09;5.50;;;2.42;;
40611;SDS011;26317;44.894;20.286;2023-04-28T09:29:53;6.18;;;2.97;;
40611;SDS011;26317;44.894;20.286;2023-04-28T09:32:23;5.03;;;2.53;;
40611;SDS011;26317;44.894;20.286;2023-04-28T09:35:05;10.10;;;3.13;;
40611;SDS011;26317;44.894;20.286;2023-04-28T09:37:44;3.17;;;2.28;;
40611;SDS011;26317;44.894;20.286;2023-04-28T09:40:22;4.88;;;2.83;;
40611;SDS011;26317;44.894;20.286;2023-04-28T09:43:00;6.93;;;2.97;;
40611;SDS011;26317;44.894;20.286;2023-04-28T09:45:47;4.50;;;2.60;;
40611;SDS011;26317;44.894;20.286;2023-04-28T09:48:31;7.40;;;3.25;;
40611;SDS011;26317;44.894;20.286;2023-04-28T09:51:11;4.65;;;3.40;;
40611;SDS011;26317;44.894;20.286;2023-04-28T09:53:51;8.40;;;3.30;;
40611;SDS011;26317;44.894;20.286;2023-04-28T09:56:33;5.15;;;3.03;;
40611;SDS011;26317;44.894;20.286;2023-04-28T09:59:10;3.53;;;2.47;;
40611;SDS011;26317;44.894;20.286;2023-04-28T10:01:47;3.90;;;2.17;;
40611;SDS011;26317;44.894;20.286;2023-04-28T10:04:26;5.80;;;2.78;;
40611;SDS011;26317;44.894;20.286;2023-04-28T10:07:00;6.25;;;3.17;;
40611;SDS011;26317;44.894;20.286;2023-04-28T10:09:37;5.38;;;3.25;;
40611;SDS011;26317;44.894;20.286;2023-04-28T10:12:21;4.97;;;2.63;;
40611;SDS011;26317;44.894;20.286;2023-04-28T10:15:04;4.55;;;3.22;;
40611;SDS011;26317;44.894;20.286;2023-04-28T10:17:42;7.55;;;2.70;;
40611;SDS011;26317;44.894;20.286;2023-04-28T10:20:17;5.63;;;2.40;;
40611;SDS011;26317;44.894;20.286;2023-04-28T10:22:55;5.93;;;3.38;;
40611;SDS011;26317;44.894;20.286;2023-04-28T10:25:44;4.30;;;2.90;;
40611;SDS011;26317;44.894;20.286;2023-04-28T10:28:27;5.72;;;3.22;;
40611;SDS011;26317;44.894;20.286;2023-04-28T10:31:10;4.82;;;2.35;;
40611;SDS011;26317;44.894;20.286;2023-04-28T10:33:50;3.58;;;2.50;;
40611;SDS011;26317;44.894;20.286;2023-04-28T10:39:31;7.68;;;2.80;;
40611;SDS011;26317;44.894;20.286;2023-04-28T10:45:15;5.88;;;3.15;;
40611;SDS011;26317;44.894;20.286;2023-04-28T10:51:41;6.63;;;3.47;;
40611;SDS011;26317;44.894;20.286;2023-04-28T10:54:16;11.00;;;3.47;;
40611;SDS011;26317;44.894;20.286;2023-04-28T10:59:54;6.43;;;3.63;;
40611;SDS011;26317;44.894;20.286;2023-04-28T11:03:00;5.78;;;3.50;;
40611;SDS011;26317;44.894;20.286;2023-04-28T11:05:32;9.90;;;3.70;;
40611;SDS011;26317;44.894;20.286;2023-04-28T11:11:15;4.93;;;3.10;;
40611;SDS011;26317;44.894;20.286;2023-04-28T11:17:04;5.43;;;3.35;;
40611;SDS011;26317;44.894;20.286;2023-04-28T11:19:49;5.10;;;3.50;;
40611;SDS011;26317;44.894;20.286;2023-04-28T11:22:32;6.72;;;3.42;;
40611;SDS011;26317;44.894;20.286;2023-04-28T11:25:11;6.63;;;3.15;;
40611;SDS011;26317;44.894;20.286;2023-04-28T11:27:55;5.43;;;3.65;;
40611;SDS011;26317;44.894;20.286;2023-04-28T11:30:39;6.38;;;3.35;;
40611;SDS011;26317;44.894;20.286;2023-04-28T11:33:31;8.50;;;5.18;;
40611;SDS011;26317;44.894;20.286;2023-04-28T11:36:06;7.00;;;3.80;;
40611;SDS011;26317;44.894;20.286;2023-04-28T11:38:55;9.13;;;3.42;;
40611;SDS011;26317;44.894;20.286;2023-04-28T11:41:29;6.97;;;3.25;;
40611;SDS011;26317;44.894;20.286;2023-04-28T11:44:12;8.00;;;2.90;;
40611;SDS011;26317;44.894;20.286;2023-04-28T11:46:50;8.50;;;3.58;;
40611;SDS011;26317;44.894;20.286;2023-04-28T11:49:41;7.57;;;3.40;;
40611;SDS011;26317;44.894;20.286;2023-04-28T11:52:21;5.28;;;3.75;;
40611;SDS011;26317;44.894;20.286;2023-04-28T11:55:04;6.43;;;3.47;;
40611;SDS011;26317;44.894;20.286;2023-04-28T12:01:09;5.32;;;2.83;;
40611;SDS011;26317;44.894;20.286;2023-04-28T12:03:56;5.70;;;2.92;;
40611;SDS011;26317;44.894;20.286;2023-04-28T12:06:34;4.15;;;3.03;;
40611;SDS011;26317;44.894;20.286;2023-04-28T12:09:19;10.98;;;3.85;;
40611;SDS011;26317;44.894;20.286;2023-04-28T12:11:59;4.35;;;3.08;;
40611;SDS011;26317;44.894;20.286;2023-04-28T12:14:57;5.57;;;3.13;;
40611;SDS011;26317;44.894;20.286;2023-04-28T12:17:39;8.70;;;3.13;;
40611;SDS011;26317;44.894;20.286;2023-04-28T12:23:16;6.85;;;2.65;;
40611;SDS011;26317;44.894;20.286;2023-04-28T12:26:05;6.25;;;2.80;;
40611;SDS011;26317;44.894;20.286;2023-04-28T12:28:38;6.13;;;2.85;;
40611;SDS011;26317;44.894;20.286;2023-04-28T12:31:19;8.30;;;3.15;;
40611;SDS011;26317;44.894;20.286;2023-04-28T12:33:58;6.57;;;2.58;;
40611;SDS011;26317;44.894;20.286;2023-04-28T12:36:43;6.75;;;2.90;;
40611;SDS011;26317;44.894;20.286;2023-04-28T12:39:20;5.10;;;2.65;;
40611;SDS011;26317;44.894;20.286;2023-04-28T12:42:01;6.82;;;2.70;;
40611;SDS011;26317;44.894;20.286;2023-04-28T12:44:38;4.20;;;2.78;;
40611;SDS011;26317;44.894;20.286;2023-04-28T12:47:17;7.10;;;2.65;;
40611;SDS011;26317;44.894;20.286;2023-04-28T12:49:50;5.22;;;3.17;;
40611;SDS011;26317;44.894;20.286;2023-04-28T12:52:25;7.20;;;3.20;;
40611;SDS011;26317;44.894;20.286;2023-04-28T12:55:15;5.28;;;2.60;;
40611;SDS011;26317;44.894;20.286;2023-04-28T12:57:52;5.93;;;3.42;;
40611;SDS011;26317;44.894;20.286;2023-04-28T13:00:32;9.43;;;2.92;;
40611;SDS011;26317;44.894;20.286;2023-04-28T13:03:10;5.65;;;3.03;;
40611;SDS011;26317;44.894;20.286;2023-04-28T13:05:51;6.03;;;2.60;;
40611;SDS011;26317;44.894;20.286;2023-04-28T13:08:23;5.85;;;2.80;;
40611;SDS011;26317;44.894;20.286;2023-04-28T13:11:00;4.03;;;2.78;;
40611;SDS011;26317;44.894;20.286;2023-04-28T13:13:53;4.70;;;2.50;;
40611;SDS011;26317;44.894;20.286;2023-04-28T13:16:32;8.10;;;3.38;;
40611;SDS011;26317;44.894;20.286;2023-04-28T13:19:22;4.47;;;3.10;;
40611;SDS011;26317;44.894;20.286;2023-04-28T13:22:02;4.80;;;2.55;;
40611;SDS011;26317;44.894;20.286;2023-04-28T13:24:44;3.95;;;2.85;;
40611;SDS011;26317;44.894;20.286;2023-04-28T13:27:34;4.28;;;1.92;;
40611;SDS011;26317;44.894;20.286;2023-04-28T13:30:14;7.60;;;2.85;;
40611;SDS011;26317;44.894;20.286;2023-04-28T13:32:52;5.97;;;3.00;;
40611;SDS011;26317;44.894;20.286;2023-04-28T13:35:34;5.40;;;3.00;;
40611;SDS011;26317;44.894;20.286;2023-04-28T13:38:16;4.32;;;2.70;;
40611;SDS011;26317;44.894;20.286;2023-04-28T13:40:51;5.63;;;2.45;;
40611;SDS011;26317;44.894;20.286;2023-04-28T13:43:30;4.78;;;2.70;;
40611;SDS011;26317;44.894;20.286;2023-04-28T13:46:16;3.72;;;2.33;;
40611;SDS011;26317;44.894;20.286;2023-04-28T13:48:58;8.57;;;2.47;;
40611;SDS011;26317;44.894;20.286;2023-04-28T13:51:34;4.63;;;2.85;;
40611;SDS011;26317;44.894;20.286;2023-04-28T13:54:13;4.90;;;2.30;;
40611;SDS011;26317;44.894;20.286;2023-04-28T13:56:51;5.65;;;2.53;;
40611;SDS011;26317;44.894;20.286;2023-04-28T13:59:34;5.50;;;2.95;;
40611;SDS011;26317;44.894;20.286;2023-04-28T14:02:15;8.45;;;2.83;;
40611;SDS011;26317;44.894;20.286;2023-04-28T14:05:00;9.02;;;2.90;;
40611;SDS011;26317;44.894;20.286;2023-04-28T14:07:34;8.57;;;2.88;;
40611;SDS011;26317;44.894;20.286;2023-04-28T14:10:14;6.78;;;2.60;;
40611;SDS011;26317;44.894;20.286;2023-04-28T14:12:59;7.00;;;2.80;;
40611;SDS011;26317;44.894;20.286;2023-04-28T14:15:40;8.65;;;2.80;;
40611;SDS011;26317;44.894;20.286;2023-04-28T14:18:28;3.50;;;2.78;;
40611;SDS011;26317;44.894;20.286;2023-04-28T14:21:09;4.60;;;2.90;;
40611;SDS011;26317;44.894;20.286;2023-04-28T14:23:41;10.93;;;3.25;;
40611;SDS011;26317;44.894;20.286;2023-04-28T14:26:21;5.47;;;2.53;;
40611;SDS011;26317;44.894;20.286;2023-04-28T14:29:01;4.07;;;2.42;;
40611;SDS011;26317;44.894;20.286;2023-04-28T14:31:44;4.90;;;2.85;;
40611;SDS011;26317;44.894;20.286;2023-04-28T14:34:21;4.03;;;2.72;;
40611;SDS011;26317;44.894;20.286;2023-04-28T14:37:00;6.10;;;2.60;;
40611;SDS011;26317;44.894;20.286;2023-04-28T14:39:50;8.82;;;3.00;;
40611;SDS011;26317;44.894;20.286;2023-04-28T14:42:41;8.52;;;3.70;;
40611;SDS011;26317;44.894;20.286;2023-04-28T14:45:17;4.50;;;2.90;;
40611;SDS011;26317;44.894;20.286;2023-04-28T14:47:59;6.80;;;3.60;;
40611;SDS011;26317;44.894;20.286;2023-04-28T14:50:41;10.40;;;3.28;;
40611;SDS011;26317;44.894;20.286;2023-04-28T14:53:24;8.60;;;3.70;;
40611;SDS011;26317;44.894;20.286;2023-04-28T14:56:08;7.50;;;3.28;;
40611;SDS011;26317;44.894;20.286;2023-04-28T14:58:50;5.10;;;2.92;;
40611;SDS011;26317;44.894;20.286;2023-04-28T15:01:29;5.07;;;2.85;;
40611;SDS011;26317;44.894;20.286;2023-04-28T15:04:22;6.63;;;2.72;;
40611;SDS011;26317;44.894;20.286;2023-04-28T15:06:59;13.35;;;4.63;;
40611;SDS011;26317;44.894;20.286;2023-04-28T15:09:49;7.38;;;3.90;;
40611;SDS011;26317;44.894;20.286;2023-04-28T15:12:23;4.30;;;3.35;;
40611;SDS011;26317;44.894;20.286;2023-04-28T15:14:59;6.10;;;3.60;;
40611;SDS011;26317;44.894;20.286;2023-04-28T15:17:38;7.32;;;3.60;;
40611;SDS011;26317;44.894;20.286;2023-04-28T15:20:34;16.38;;;6.03;;
40611;SDS011;26317;44.894;20.286;2023-04-28T15:23:12;9.63;;;3.73;;
40611;SDS011;26317;44.894;20.286;2023-04-28T15:25:55;7.82;;;3.30;;
40611;SDS011;26317;44.894;20.286;2023-04-28T15:28:35;3.55;;;2.70;;
40611;SDS011;26317;44.894;20.286;2023-04-28T15:31:06;11.93;;;3.42;;
40611;SDS011;26317;44.894;20.286;2023-04-28T15:33:40;7.93;;;3.28;;
40611;SDS011;26317;44.894;20.286;2023-04-28T15:36:24;4.00;;;2.78;;
40611;SDS011;26317;44.894;20.286;2023-04-28T15:39:03;6.80;;;3.47;;
40611;SDS011;26317;44.894;20.286;2023-04-28T15:41:35;7.13;;;3.13;;
40611;SDS011;26317;44.894;20.286;2023-04-28T15:44:11;6.50;;;2.80;;
40611;SDS011;26317;44.894;20.286;2023-04-28T15:46:50;8.27;;;3.50;;
40611;SDS011;26317;44.894;20.286;2023-04-28T15:49:32;5.40;;;3.22;;
40611;SDS011;26317;44.894;20.286;2023-04-28T15:52:14;8.70;;;3.75;;
40611;SDS011;26317;44.894;20.286;2023-04-28T15:54:47;8.07;;;3.92;;
40611;SDS011;26317;44.894;20.286;2023-04-28T15:57:23;7.22;;;2.72;;
40611;SDS011;26317;44.894;20.286;2023-04-28T15:59:59;6.97;;;3.17;;
40611;SDS011;26317;44.894;20.286;2023-04-28T16:02:37;9.27;;;3.47;;
40611;SDS011;26317;44.894;20.286;2023-04-28T16:05:18;6.05;;;3.20;;
40611;SDS011;26317;44.894;20.286;2023-04-28T16:07:58;8.73;;;3.42;;
40611;SDS011;26317;44.894;20.286;2023-04-28T16:10:35;5.18;;;2.47;;
40611;SDS011;26317;44.894;20.286;2023-04-28T16:13:10;5.63;;;3.05;;